sensor_id;sensor_type;location;lat;lon;timestamp;pressure;altitude;pressure_sealevel;temperature;humidity
65557;BME280;52200;53.490;14.376;2023-03-21T00:01:43;101470.28;;;8.18;92.04
65557;BME280;52200;53.490;14.376;2023-03-21T00:04:08;101462.72;;;8.09;92.35
65557;BME280;52200;53.490;14.376;2023-03-21T00:06:34;101461.91;;;8.02;92.56
65557;BME280;52200;53.490;14.376;2023-03-21T00:09:00;101461.13;;;7.85;92.97
65557;BME280;52200;53.490;14.376;2023-03-21T00:11:26;101461.19;;;7.72;93.12
65557;BME280;52200;53.490;14.376;2023-03-21T00:13:51;101463.72;;;7.62;93.61
65557;BME280;52200;53.490;14.376;2023-03-21T00:16:18;101458.72;;;7.41;94.96
65557;BME280;52200;53.490;14.376;2023-03-21T00:18:48;101459.53;;;7.57;94.90
65557;BME280;52200;53.490;14.376;2023-03-21T00:21:18;101451.03;;;7.75;93.98
65557;BME280;52200;53.490;14.376;2023-03-21T00:23:45;101455.25;;;7.81;93.24
65557;BME280;52200;53.490;14.376;2023-03-21T00:26:11;101462.84;;;7.70;93.84
65557;BME280;52200;53.490;14.376;2023-03-21T00:28:38;101456.97;;;7.70;94.46
65557;BME280;52200;53.490;14.376;2023-03-21T00:31:04;101456.13;;;7.72;94.06
65557;BME280;52200;53.490;14.376;2023-03-21T00:33:30;101447.66;;;7.86;93.50
65557;BME280;52200;53.490;14.376;2023-03-21T00:35:55;101450.09;;;8.06;92.17
65557;BME280;52200;53.490;14.376;2023-03-21T00:38:22;101450.94;;;8.03;92.88
65557;BME280;52200;53.490;14.376;2023-03-21T00:40:48;101442.56;;;7.89;92.50
65557;BME280;52200;53.490;14.376;2023-03-21T00:43:13;101445.06;;;7.90;93.31
65557;BME280;52200;53.490;14.376;2023-03-21T00:45:42;101445.06;;;7.94;93.23
65557;BME280;52200;53.490;14.376;2023-03-21T00:48:08;101445.97;;;7.79;93.52
65557;BME280;52200;53.490;14.376;2023-03-21T00:50:34;101447.69;;;7.73;93.88
65557;BME280;52200;53.490;14.376;2023-03-21T00:53:00;101444.28;;;7.78;93.66
65557;BME280;52200;53.490;14.376;2023-03-21T00:55:25;101439.16;;;7.91;92.98
65557;BME280;52200;53.490;14.376;2023-03-21T00:57:51;101434.06;;;7.99;93.36
65557;BME280;52200;53.490;14.376;2023-03-21T01:00:17;101430.72;;;7.94;93.22
65557;BME280;52200;53.490;14.376;2023-03-21T01:02:43;101429.06;;;7.87;93.84
65557;BME280;52200;53.490;14.376;2023-03-21T01:05:25;101435.84;;;7.77;93.58
65557;BME280;52200;53.490;14.376;2023-03-21T01:08:10;101429.09;;;7.84;93.66
65557;BME280;52200;53.490;14.376;2023-03-21T01:10:41;101434.94;;;8.00;93.18
65557;BME280;52200;53.490;14.376;2023-03-21T01:13:07;101436.63;;;7.98;92.82
65557;BME280;52200;53.490;14.376;2023-03-21T01:15:33;101434.91;;;8.03;92.68
65557;BME280;52200;53.490;14.376;2023-03-21T01:17:58;101429.91;;;7.94;93.30
65557;BME280;52200;53.490;14.376;2023-03-21T01:20:24;101430.72;;;7.94;93.65
65557;BME280;52200;53.490;14.376;2023-03-21T01:22:50;101429.78;;;8.15;92.59
65557;BME280;52200;53.490;14.376;2023-03-21T01:25:15;101434.88;;;8.11;93.13
65557;BME280;52200;53.490;14.376;2023-03-21T01:27:41;101431.50;;;8.05;93.27
65557;BME280;52200;53.490;14.376;2023-03-21T01:30:06;101434.00;;;8.12;92.61
65557;BME280;52200;53.490;14.376;2023-03-21T01:32:32;101428.13;;;8.14;92.62
65557;BME280;52200;53.490;14.376;2023-03-21T01:34:57;101427.22;;;8.20;92.36
65557;BME280;52200;53.490;14.376;2023-03-21T01:37:23;101429.78;;;8.14;93.04
65557;BME280;52200;53.490;14.376;2023-03-21T01:39:50;101430.59;;;8.19;92.27
65557;BME280;52200;53.490;14.376;2023-03-21T01:42:16;101433.97;;;8.18;92.63
65557;BME280;52200;53.490;14.376;2023-03-21T01:44:53;101429.75;;;8.20;92.28
65557;BME280;52200;53.490;14.376;2023-03-21T01:47:18;101432.34;;;8.07;93.11
65557;BME280;52200;53.490;14.376;2023-03-21T01:49:46;101428.97;;;8.05;92.70
65557;BME280;52200;53.490;14.376;2023-03-21T01:52:17;101434.94;;;7.97;93.36
65557;BME280;52200;53.490;14.376;2023-03-21T01:54:46;101431.50;;;8.09;93.33
65557;BME280;52200;53.490;14.376;2023-03-21T01:57:21;101433.13;;;8.19;92.92
65557;BME280;52200;53.490;14.376;2023-03-21T01:59:50;101428.94;;;8.15;92.23
65557;BME280;52200;53.490;14.376;2023-03-21T02:02:21;101426.44;;;8.09;93.30
65557;BME280;52200;53.490;14.376;2023-03-21T02:04:48;101437.44;;;8.03;92.97
65557;BME280;52200;53.490;14.376;2023-03-21T02:07:17;101425.56;;;8.13;92.50
65557;BME280;52200;53.490;14.376;2023-03-21T02:09:47;101428.13;;;8.06;93.15
65557;BME280;52200;53.490;14.376;2023-03-21T02:12:14;101435.72;;;8.06;92.70
65557;BME280;52200;53.490;14.376;2023-03-21T02:14:41;101418.88;;;7.99;92.89
65557;BME280;52200;53.490;14.376;2023-03-21T02:22:54;101425.66;;;7.94;92.92
65557;BME280;52200;53.490;14.376;2023-03-21T02:28:11;101422.28;;;8.04;92.27
65557;BME280;52200;53.490;14.376;2023-03-21T02:31:05;101432.34;;;8.11;91.93
65557;BME280;52200;53.490;14.376;2023-03-21T02:38:52;101420.56;;;8.05;92.01
65557;BME280;52200;53.490;14.376;2023-03-21T02:41:25;101419.69;;;8.12;92.32
65557;BME280;52200;53.490;14.376;2023-03-21T02:43:58;101420.59;;;8.02;92.91
65557;BME280;52200;53.490;14.376;2023-03-21T02:47:10;101422.25;;;8.11;93.03
65557;BME280;52200;53.490;14.376;2023-03-21T02:49:39;101423.88;;;8.16;91.61
65557;BME280;52200;53.490;14.376;2023-03-21T02:52:08;101426.41;;;8.16;92.12
65557;BME280;52200;53.490;14.376;2023-03-21T02:54:37;101423.84;;;8.21;91.50
65557;BME280;52200;53.490;14.376;2023-03-21T02:57:04;101430.56;;;8.25;91.80
65557;BME280;52200;53.490;14.376;2023-03-21T02:59:31;101432.25;;;8.29;91.78
65557;BME280;52200;53.490;14.376;2023-03-21T03:01:57;101429.72;;;8.31;91.31
65557;BME280;52200;53.490;14.376;2023-03-21T03:04:26;101438.28;;;8.05;92.49
65557;BME280;52200;53.490;14.376;2023-03-21T03:09:37;101423.81;;;8.24;91.89
65557;BME280;52200;53.490;14.376;2023-03-21T03:12:32;101430.56;;;8.28;91.56
65557;BME280;52200;53.490;14.376;2023-03-21T03:15:22;101433.06;;;8.34;91.67
65557;BME280;52200;53.490;14.376;2023-03-21T03:17:57;101433.06;;;8.34;91.87
65557;BME280;52200;53.490;14.376;2023-03-21T03:20:35;101425.53;;;8.19;91.81
65557;BME280;52200;53.490;14.376;2023-03-21T03:25:52;101424.72;;;8.18;92.76
65557;BME280;52200;53.490;14.376;2023-03-21T03:28:30;101429.72;;;8.29;91.79
65557;BME280;52200;53.490;14.376;2023-03-21T03:30:58;101427.19;;;8.29;91.39
65557;BME280;52200;53.490;14.376;2023-03-21T03:33:25;101425.47;;;8.31;91.45
65557;BME280;52200;53.490;14.376;2023-03-21T03:35:52;101431.41;;;8.24;92.24
65557;BME280;52200;53.490;14.376;2023-03-21T03:38:20;101433.94;;;8.27;91.55
65557;BME280;52200;53.490;14.376;2023-03-21T03:40:54;101424.78;;;8.06;92.03
65557;BME280;52200;53.490;14.376;2023-03-21T03:43:26;101439.00;;;8.24;92.40
65557;BME280;52200;53.490;14.376;2023-03-21T03:46:05;101436.50;;;8.26;91.63
65557;BME280;52200;53.490;14.376;2023-03-21T03:48:42;101432.31;;;8.15;92.72
65557;BME280;52200;53.490;14.376;2023-03-21T03:51:35;101437.34;;;8.20;91.60
65557;BME280;52200;53.490;14.376;2023-03-21T03:54:06;101438.25;;;8.11;92.50
65557;BME280;52200;53.490;14.376;2023-03-21T03:56:34;101436.66;;;7.90;93.06
65557;BME280;52200;53.490;14.376;2023-03-21T03:59:03;101435.78;;;7.94;92.42
65557;BME280;52200;53.490;14.376;2023-03-21T04:01:28;101436.53;;;8.15;92.45
65557;BME280;52200;53.490;14.376;2023-03-21T04:03:54;101435.69;;;8.13;92.24
65557;BME280;52200;53.490;14.376;2023-03-21T04:06:19;101434.84;;;8.15;92.62
65557;BME280;52200;53.490;14.376;2023-03-21T04:08:47;101440.72;;;8.22;92.09
65557;BME280;52200;53.490;14.376;2023-03-21T04:11:13;101434.81;;;8.20;92.18
65557;BME280;52200;53.490;14.376;2023-03-21T04:13:42;101435.66;;;8.19;92.52
65557;BME280;52200;53.490;14.376;2023-03-21T04:16:08;101434.81;;;8.21;92.25
65557;BME280;52200;53.490;14.376;2023-03-21T04:18:35;101434.94;;;7.95;93.41
65557;BME280;52200;53.490;14.376;2023-03-21T04:21:06;101434.94;;;7.97;92.98
65557;BME280;52200;53.490;14.376;2023-03-21T04:23:32;101428.97;;;8.05;93.17
65557;BME280;52200;53.490;14.376;2023-03-21T04:25:57;101433.97;;;8.18;92.38
65557;BME280;52200;53.490;14.376;2023-03-21T04:28:22;101434.81;;;8.25;91.87
65557;BME280;52200;53.490;14.376;2023-03-21T04:30:48;101428.94;;;8.12;92.47
65557;BME280;52200;53.490;14.376;2023-03-21T04:33:14;101424.72;;;8.18;92.20
65557;BME280;52200;53.490;14.376;2023-03-21T04:35:39;101426.44;;;8.10;92.22
65557;BME280;52200;53.490;14.376;2023-03-21T04:38:06;101429.75;;;8.21;92.33
65557;BME280;52200;53.490;14.376;2023-03-21T04:40:32;101432.41;;;8.00;93.11
65557;BME280;52200;53.490;14.376;2023-03-21T04:42:57;101428.19;;;7.94;93.26
65557;BME280;52200;53.490;14.376;2023-03-21T04:45:25;101432.41;;;8.00;93.58
65557;BME280;52200;53.490;14.376;2023-03-21T04:47:50;101433.25;;;8.02;92.74
65557;BME280;52200;53.490;14.376;2023-03-21T04:50:16;101434.13;;;7.90;93.89
65557;BME280;52200;53.490;14.376;2023-03-21T04:52:41;101437.56;;;7.80;94.34
65557;BME280;52200;53.490;14.376;2023-03-21T04:55:07;101430.75;;;7.88;94.43
65557;BME280;52200;53.490;14.376;2023-03-21T04:57:35;101429.06;;;7.90;93.97
65557;BME280;52200;53.490;14.376;2023-03-21T05:00:00;101439.19;;;7.90;93.77
65557;BME280;52200;53.490;14.376;2023-03-21T05:02:25;101430.66;;;8.06;93.69
65557;BME280;52200;53.490;14.376;2023-03-21T05:04:51;101436.66;;;7.90;94.16
65557;BME280;52200;53.490;14.376;2023-03-21T05:07:16;101428.22;;;7.88;94.36
65557;BME280;52200;53.490;14.376;2023-03-21T05:09:42;101435.84;;;7.82;93.88
65557;BME280;52200;53.490;14.376;2023-03-21T05:12:07;101431.75;;;7.40;96.83
65557;BME280;52200;53.490;14.376;2023-03-21T05:14:32;101425.75;;;7.79;95.83
65557;BME280;52200;53.490;14.376;2023-03-21T05:16:58;101436.66;;;7.87;94.92
65557;BME280;52200;53.490;14.376;2023-03-21T05:19:27;101435.81;;;7.88;94.90
65557;BME280;52200;53.490;14.376;2023-03-21T05:22:09;101440.97;;;7.66;95.52
65557;BME280;52200;53.490;14.376;2023-03-21T05:24:36;101439.34;;;7.40;96.98
65557;BME280;52200;53.490;14.376;2023-03-21T05:27:03;101437.63;;;7.55;96.22
65557;BME280;52200;53.490;14.376;2023-03-21T05:29:31;101440.09;;;7.73;96.53
65557;BME280;52200;53.490;14.376;2023-03-21T05:31:58;101444.25;;;7.90;95.30
65557;BME280;52200;53.490;14.376;2023-03-21T05:34:24;101438.34;;;7.83;95.32
65557;BME280;52200;53.490;14.376;2023-03-21T05:36:49;101443.44;;;7.82;96.00
65557;BME280;52200;53.490;14.376;2023-03-21T05:39:15;101449.28;;;8.01;94.89
65557;BME280;52200;53.490;14.376;2023-03-21T05:41:40;101441.72;;;7.87;94.54
65557;BME280;52200;53.490;14.376;2023-03-21T05:44:05;101445.91;;;7.97;94.81
65557;BME280;52200;53.490;14.376;2023-03-21T05:46:31;101444.13;;;8.15;94.29
65557;BME280;52200;53.490;14.376;2023-03-21T05:48:56;101450.09;;;8.03;94.61
65557;BME280;52200;53.490;14.376;2023-03-21T05:51:21;101439.91;;;8.14;93.72
65557;BME280;52200;53.490;14.376;2023-03-21T05:53:47;101439.88;;;8.20;93.42
65557;BME280;52200;53.490;14.376;2023-03-21T05:56:13;101448.28;;;8.33;91.98
65557;BME280;52200;53.490;14.376;2023-03-21T05:58:38;101450.81;;;8.28;92.83
65557;BME280;52200;53.490;14.376;2023-03-21T06:01:03;101454.28;;;8.13;92.78
65557;BME280;52200;53.490;14.376;2023-03-21T06:03:29;101451.72;;;8.12;93.15
65557;BME280;52200;53.490;14.376;2023-03-21T06:05:55;101450.81;;;8.28;91.85
65557;BME280;52200;53.490;14.376;2023-03-21T06:08:20;101449.09;;;8.30;92.24
65557;BME280;52200;53.490;14.376;2023-03-21T06:10:45;101452.47;;;8.35;91.65
65557;BME280;52200;53.490;14.376;2023-03-21T06:13:11;101448.25;;;8.39;90.84
65557;BME280;52200;53.490;14.376;2023-03-21T06:15:36;101449.94;;;8.35;91.26
65557;BME280;52200;53.490;14.376;2023-03-21T06:18:01;101449.09;;;8.30;90.45
65557;BME280;52200;53.490;14.376;2023-03-21T06:20:27;101450.72;;;8.44;90.63
65557;BME280;52200;53.490;14.376;2023-03-21T06:22:52;101459.91;;;8.65;90.01
65557;BME280;52200;53.490;14.376;2023-03-21T06:25:17;101454.91;;;8.52;90.65
65557;BME280;52200;53.490;14.376;2023-03-21T06:27:43;101457.63;;;8.14;90.76
65557;BME280;52200;53.490;14.376;2023-03-21T06:30:09;101449.88;;;8.46;90.98
65557;BME280;52200;53.490;14.376;2023-03-21T06:32:34;101449.09;;;8.38;90.69
65557;BME280;52200;53.490;14.376;2023-03-21T06:35:00;101454.19;;;8.24;91.36
65557;BME280;52200;53.490;14.376;2023-03-21T06:37:25;101456.03;;;7.94;92.44
65557;BME280;52200;53.490;14.376;2023-03-21T06:39:51;101462.72;;;8.11;91.93
65557;BME280;52200;53.490;14.376;2023-03-21T06:42:17;101458.41;;;8.28;91.38
65557;BME280;52200;53.490;14.376;2023-03-21T06:44:42;101459.16;;;8.46;90.68
65557;BME280;52200;53.490;14.376;2023-03-21T06:47:08;101461.59;;;8.64;89.57
65557;BME280;52200;53.490;14.376;2023-03-21T06:49:33;101461.66;;;8.57;89.21
65557;BME280;52200;53.490;14.376;2023-03-21T06:51:59;101468.53;;;8.25;90.59
65557;BME280;52200;53.490;14.376;2023-03-21T06:54:24;101468.47;;;8.41;90.53
65557;BME280;52200;53.490;14.376;2023-03-21T06:56:49;101465.88;;;8.58;89.95
65557;BME280;52200;53.490;14.376;2023-03-21T06:59:15;101474.22;;;8.72;89.11
65557;BME280;52200;53.490;14.376;2023-03-21T07:01:40;101474.28;;;8.61;89.22
65557;BME280;52200;53.490;14.376;2023-03-21T07:04:07;101480.97;;;8.68;89.67
65557;BME280;52200;53.490;14.376;2023-03-21T07:06:32;101478.38;;;8.79;89.08
65557;BME280;52200;53.490;14.376;2023-03-21T07:08:58;101479.28;;;8.70;89.50
65557;BME280;52200;53.490;14.376;2023-03-21T07:11:24;101484.34;;;8.70;89.91
65557;BME280;52200;53.490;14.376;2023-03-21T07:13:50;101479.91;;;9.03;87.70
65557;BME280;52200;53.490;14.376;2023-03-21T07:16:16;101480.66;;;9.12;87.41
65557;BME280;52200;53.490;14.376;2023-03-21T07:18:43;101479.25;;;8.77;87.75
65557;BME280;52200;53.490;14.376;2023-03-21T07:21:09;101482.50;;;8.97;87.77
65557;BME280;52200;53.490;14.376;2023-03-21T07:23:34;101478.75;;;9.39;86.81
65557;BME280;52200;53.490;14.376;2023-03-21T07:26:00;101484.44;;;9.61;86.34
65557;BME280;52200;53.490;14.376;2023-03-21T07:28:26;101483.31;;;9.88;84.52
65557;BME280;52200;53.490;14.376;2023-03-21T07:30:57;101481.53;;;9.93;84.27
65557;BME280;52200;53.490;14.376;2023-03-21T07:33:23;101482.66;;;9.67;84.49
65557;BME280;52200;53.490;14.376;2023-03-21T07:35:50;101487.00;;;9.59;85.48
65557;BME280;52200;53.490;14.376;2023-03-21T07:38:16;101482.47;;;9.88;84.31
65557;BME280;52200;53.490;14.376;2023-03-21T07:40:42;101483.28;;;9.91;83.92
65557;BME280;52200;53.490;14.376;2023-03-21T07:43:08;101482.72;;;10.38;81.98
65557;BME280;52200;53.490;14.376;2023-03-21T07:45:33;101486.78;;;10.48;80.63
65557;BME280;52200;53.490;14.376;2023-03-21T07:47:59;101483.16;;;10.66;80.35
65557;BME280;52200;53.490;14.376;2023-03-21T07:50:25;101480.47;;;10.77;78.62
65557;BME280;52200;53.490;14.376;2023-03-21T07:52:50;101491.34;;;10.85;78.65
65557;BME280;52200;53.490;14.376;2023-03-21T07:55:15;101485.47;;;10.83;78.63
65557;BME280;52200;53.490;14.376;2023-03-21T07:57:41;101483.06;;;10.72;79.43
65557;BME280;52200;53.490;14.376;2023-03-21T08:00:07;101482.00;;;10.87;78.20
65557;BME280;52200;53.490;14.376;2023-03-21T08:02:33;101483.28;;;11.13;77.41
65557;BME280;52200;53.490;14.376;2023-03-21T08:04:58;101482.38;;;10.62;79.23
65557;BME280;52200;53.490;14.376;2023-03-21T08:07:23;101474.00;;;10.54;79.00
65557;BME280;52200;53.490;14.376;2023-03-21T08:09:50;101470.94;;;10.90;78.09
65557;BME280;52200;53.490;14.376;2023-03-21T08:12:16;101474.41;;;10.86;78.08
65557;BME280;52200;53.490;14.376;2023-03-21T08:14:41;101481.56;;;11.15;77.02
65557;BME280;52200;53.490;14.376;2023-03-21T08:17:07;101471.28;;;10.68;78.38
65557;BME280;52200;53.490;14.376;2023-03-21T08:19:33;101470.00;;;10.95;78.23
65557;BME280;52200;53.490;14.376;2023-03-21T08:22:00;101476.78;;;10.96;79.13
65557;BME280;52200;53.490;14.376;2023-03-21T08:24:27;101477.44;;;11.08;78.17
65557;BME280;52200;53.490;14.376;2023-03-21T08:26:53;101480.34;;;11.36;77.46
65557;BME280;52200;53.490;14.376;2023-03-21T08:29:18;101484.72;;;11.75;75.63
65557;BME280;52200;53.490;14.376;2023-03-21T08:31:45;101480.47;;;11.74;76.49
65557;BME280;52200;53.490;14.376;2023-03-21T08:34:11;101475.09;;;11.44;75.86
65557;BME280;52200;53.490;14.376;2023-03-21T08:36:38;101481.47;;;11.67;76.35
65557;BME280;52200;53.490;14.376;2023-03-21T08:39:03;101480.91;;;11.52;75.40
65557;BME280;52200;53.490;14.376;2023-03-21T08:41:33;101481.47;;;11.67;75.29
65557;BME280;52200;53.490;14.376;2023-03-21T08:43:59;101480.78;;;11.58;74.82
65557;BME280;52200;53.490;14.376;2023-03-21T08:46:25;101482.84;;;11.38;75.46
65557;BME280;52200;53.490;14.376;2023-03-21T08:48:51;101484.44;;;11.45;77.21
65557;BME280;52200;53.490;14.376;2023-03-21T08:51:16;101476.22;;;11.76;76.24
65557;BME280;52200;53.490;14.376;2023-03-21T08:53:41;101477.97;;;12.16;76.67
65557;BME280;52200;53.490;14.376;2023-03-21T08:56:08;101473.28;;;11.94;77.07
65557;BME280;52200;53.490;14.376;2023-03-21T08:58:34;101472.44;;;11.96;75.23
65557;BME280;52200;53.490;14.376;2023-03-21T09:01:00;101470.81;;;12.34;74.21
65557;BME280;52200;53.490;14.376;2023-03-21T09:03:26;101471.78;;;11.84;74.19
65557;BME280;52200;53.490;14.376;2023-03-21T09:05:52;101472.25;;;11.59;74.61
65557;BME280;52200;53.490;14.376;2023-03-21T09:08:18;101471.41;;;11.62;76.35
65557;BME280;52200;53.490;14.376;2023-03-21T09:10:48;101479.09;;;11.57;75.97
65557;BME280;52200;53.490;14.376;2023-03-21T09:13:14;101486.16;;;11.43;76.41
65557;BME280;52200;53.490;14.376;2023-03-21T09:15:39;101481.91;;;11.42;75.96
65557;BME280;52200;53.490;14.376;2023-03-21T09:18:05;101479.84;;;11.63;76.76
65557;BME280;52200;53.490;14.376;2023-03-21T09:20:44;101477.53;;;11.50;75.89
65557;BME280;52200;53.490;14.376;2023-03-21T09:23:12;101480.84;;;11.55;75.58
65557;BME280;52200;53.490;14.376;2023-03-21T09:25:43;101478.09;;;11.66;76.02
65557;BME280;52200;53.490;14.376;2023-03-21T09:28:09;101475.03;;;11.92;75.46
65557;BME280;52200;53.490;14.376;2023-03-21T09:30:36;101476.66;;;11.95;75.65
65557;BME280;52200;53.490;14.376;2023-03-21T09:33:03;101475.91;;;12.34;75.00
65557;BME280;52200;53.490;14.376;2023-03-21T09:35:32;101478.22;;;12.04;74.44
65557;BME280;52200;53.490;14.376;2023-03-21T09:37:58;101475.63;;;12.07;74.58
65557;BME280;52200;53.490;14.376;2023-03-21T09:43:35;101475.81;;;12.76;71.28
65557;BME280;52200;53.490;14.376;2023-03-21T09:46:09;101473.81;;;12.87;71.58
65557;BME280;52200;53.490;14.376;2023-03-21T09:48:57;101469.03;;;12.75;72.08
65557;BME280;52200;53.490;14.376;2023-03-21T09:51:32;101479.25;;;12.73;71.82
65557;BME280;52200;53.490;14.376;2023-03-21T09:54:03;101477.19;;;12.14;72.98
65557;BME280;52200;53.490;14.376;2023-03-21T09:56:32;101465.50;;;12.43;72.37
65557;BME280;52200;53.490;14.376;2023-03-21T09:58:59;101464.88;;;13.05;72.08
65557;BME280;52200;53.490;14.376;2023-03-21T10:01:28;101466.81;;;12.61;71.41
65557;BME280;52200;53.490;14.376;2023-03-21T10:03:59;101472.25;;;12.46;72.46
65557;BME280;52200;53.490;14.376;2023-03-21T10:06:26;101473.88;;;12.48;73.36
65557;BME280;52200;53.490;14.376;2023-03-21T10:08:59;101466.22;;;12.86;71.35
65557;BME280;52200;53.490;14.376;2023-03-21T10:11:33;101468.78;;;13.19;69.94
65557;BME280;52200;53.490;14.376;2023-03-21T10:14:30;101469.03;;;12.75;71.10
65557;BME280;52200;53.490;14.376;2023-03-21T10:17:00;101462.78;;;12.87;70.45
65557;BME280;52200;53.490;14.376;2023-03-21T10:19:28;101465.88;;;13.00;70.97
65557;BME280;52200;53.490;14.376;2023-03-21T10:21:54;101462.06;;;13.49;69.36
65557;BME280;52200;53.490;14.376;2023-03-21T10:24:22;101464.38;;;13.26;69.16
65557;BME280;52200;53.490;14.376;2023-03-21T10:26:50;101459.78;;;12.71;70.84
65557;BME280;52200;53.490;14.376;2023-03-21T10:29:16;101460.25;;;12.49;70.70
65557;BME280;52200;53.490;14.376;2023-03-21T10:31:44;101455.53;;;12.34;71.83
65557;BME280;52200;53.490;14.376;2023-03-21T10:34:37;101459.81;;;12.32;71.85
65557;BME280;52200;53.490;14.376;2023-03-21T10:37:04;101450.72;;;12.21;71.20
65557;BME280;52200;53.490;14.376;2023-03-21T10:39:39;101452.44;;;12.19;71.88
65557;BME280;52200;53.490;14.376;2023-03-21T10:42:05;101455.13;;;12.13;73.38
65557;BME280;52200;53.490;14.376;2023-03-21T10:44:34;101462.81;;;12.10;72.77
65557;BME280;52200;53.490;14.376;2023-03-21T10:47:04;101455.03;;;12.18;72.79
65557;BME280;52200;53.490;14.376;2023-03-21T10:49:30;101457.19;;;12.35;73.31
65557;BME280;52200;53.490;14.376;2023-03-21T10:51:58;101457.94;;;12.40;71.96
65557;BME280;52200;53.490;14.376;2023-03-21T10:54:28;101446.59;;;12.52;71.37
65557;BME280;52200;53.490;14.376;2023-03-21T10:57:07;101452.03;;;12.38;72.75
65557;BME280;52200;53.490;14.376;2023-03-21T10:59:37;101442.50;;;12.46;71.60
65557;BME280;52200;53.490;14.376;2023-03-21T11:02:04;101442.72;;;12.73;71.45
65557;BME280;52200;53.490;14.376;2023-03-21T11:04:31;101445.06;;;12.81;71.10
65557;BME280;52200;53.490;14.376;2023-03-21T11:07:00;101439.75;;;12.90;70.87
65557;BME280;52200;53.490;14.376;2023-03-21T11:09:56;101440.38;;;13.33;69.57
65557;BME280;52200;53.490;14.376;2023-03-21T11:14:54;101439.06;;;12.47;71.69
65557;BME280;52200;53.490;14.376;2023-03-21T11:17:23;101432.28;;;12.48;71.32
65557;BME280;52200;53.490;14.376;2023-03-21T11:22:24;101419.31;;;12.92;72.46
65557;BME280;52200;53.490;14.376;2023-03-21T11:24:53;101426.38;;;13.48;70.16
65557;BME280;52200;53.490;14.376;2023-03-21T11:27:21;101416.25;;;13.75;69.38
65557;BME280;52200;53.490;14.376;2023-03-21T11:29:49;101411.31;;;13.70;69.51
65557;BME280;52200;53.490;14.376;2023-03-21T11:32:33;101410.09;;;13.82;69.20
65557;BME280;52200;53.490;14.376;2023-03-21T11:35:04;101403.28;;;14.11;67.90
65557;BME280;52200;53.490;14.376;2023-03-21T11:40:18;101403.09;;;13.59;67.88
65557;BME280;52200;53.490;14.376;2023-03-21T11:42:49;101402.09;;;13.64;68.73
65557;BME280;52200;53.490;14.376;2023-03-21T11:45:17;101404.75;;;13.28;69.24
65557;BME280;52200;53.490;14.376;2023-03-21T11:47:44;101399.94;;;12.84;69.77
65557;BME280;52200;53.490;14.376;2023-03-21T11:50:44;101401.97;;;12.35;72.30
65557;BME280;52200;53.490;14.376;2023-03-21T11:53:30;101395.38;;;12.63;70.79
65557;BME280;52200;53.490;14.376;2023-03-21T12:01:29;101399.91;;;12.86;70.39
65557;BME280;52200;53.490;14.376;2023-03-21T12:06:57;101398.75;;;12.27;72.07
65557;BME280;52200;53.490;14.376;2023-03-21T12:09:40;101396.72;;;12.04;74.08
65557;BME280;52200;53.490;14.376;2023-03-21T12:15:39;101384.72;;;12.11;74.73
65557;BME280;52200;53.490;14.376;2023-03-21T12:19:20;101376.50;;;11.55;76.24
65557;BME280;52200;53.490;14.376;2023-03-21T12:29:39;101367.91;;;11.61;75.61
65557;BME280;52200;53.490;14.376;2023-03-21T12:35:28;101369.78;;;12.31;73.79
65557;BME280;52200;53.490;14.376;2023-03-21T12:38:14;101367.78;;;12.44;72.63
65557;BME280;52200;53.490;14.376;2023-03-21T12:46:18;101353.69;;;11.52;75.83
65557;BME280;52200;53.490;14.376;2023-03-21T12:48:59;101352.06;;;11.87;76.56
65557;BME280;52200;53.490;14.376;2023-03-21T12:51:30;101346.78;;;12.34;75.23
65557;BME280;52200;53.490;14.376;2023-03-21T12:54:14;101345.44;;;12.88;72.77
65557;BME280;52200;53.490;14.376;2023-03-21T12:57:01;101348.94;;;12.84;72.51
65557;BME280;52200;53.490;14.376;2023-03-21T13:00:27;101346.50;;;12.47;72.71
65557;BME280;52200;53.490;14.376;2023-03-21T13:02:59;101345.44;;;12.88;71.92
65557;BME280;52200;53.490;14.376;2023-03-21T13:05:33;101342.97;;;12.52;71.03
65557;BME280;52200;53.490;14.376;2023-03-21T13:08:16;101345.78;;;12.41;72.45
65557;BME280;52200;53.490;14.376;2023-03-21T13:10:44;101336.78;;;12.27;72.67
65557;BME280;52200;53.490;14.376;2023-03-21T13:16:29;101341.59;;;12.39;72.56
65557;BME280;52200;53.490;14.376;2023-03-21T13:21:42;101334.22;;;12.63;73.62
65557;BME280;52200;53.490;14.376;2023-03-21T13:26:57;101329.69;;;12.39;74.15
65557;BME280;52200;53.490;14.376;2023-03-21T13:29:28;101327.22;;;12.71;73.42
65557;BME280;52200;53.490;14.376;2023-03-21T13:32:08;101319.84;;;12.25;74.52
65557;BME280;52200;53.490;14.376;2023-03-21T13:34:37;101319.59;;;12.35;74.57
65557;BME280;52200;53.490;14.376;2023-03-21T13:37:03;101314.09;;;12.52;74.38
65557;BME280;52200;53.490;14.376;2023-03-21T13:39:28;101312.72;;;12.71;73.86
65557;BME280;52200;53.490;14.376;2023-03-21T13:42:02;101308.56;;;12.69;74.31
65557;BME280;52200;53.490;14.376;2023-03-21T13:44:40;101306.38;;;12.55;74.47
65557;BME280;52200;53.490;14.376;2023-03-21T13:47:39;101300.03;;;13.01;73.90
65557;BME280;52200;53.490;14.376;2023-03-21T13:53:22;101290.16;;;13.20;71.85
65557;BME280;52200;53.490;14.376;2023-03-21T13:56:00;101287.19;;;13.64;71.23
65557;BME280;52200;53.490;14.376;2023-03-21T13:58:39;101284.56;;;12.76;72.39
65557;BME280;52200;53.490;14.376;2023-03-21T14:09:07;101273.88;;;12.95;73.97
65557;BME280;52200;53.490;14.376;2023-03-21T14:11:35;101277.56;;;12.51;74.25
65557;BME280;52200;53.490;14.376;2023-03-21T14:14:01;101276.00;;;12.46;74.71
65557;BME280;52200;53.490;14.376;2023-03-21T14:16:29;101270.44;;;12.64;73.71